Terminal Aerodrome Forecast
Issued by NWS Sterling, VA

Current Version | Previous Version | Graphics & Text | Print | Product List | Glossary On
Versions: 1 2 3 4 5 6 7 8 9 10 11 12 13 14 15 16 17 18 19 20
722
FTUS41 KLWX 280530
TAFMRB
TAF
KMRB 280530Z 2806/2906 01004KT P6SM BKN100
     FM280900 00000KT 3SM BR OVC050
     FM281200 00000KT 2SM -SHRA BR OVC050
     FM281500 23004KT P6SM -SHRA BKN060
     FM282200 29006KT 5SM -SHRA BKN040
     FM290000 32006KT P6SM BKN040
     FM290200 33008KT P6SM BKN030
     FM290500 34007KT P6SM BKN035=

USA.gov is the U.S. government's official web portal to all federal, state and local government web resources and services.